sensor_id;sensor_type;location;lat;lon;timestamp;temperature;humidity
23769;DHT22;12064;50.890;5.424;2023-06-14T00:01:58;25.40;57.90
23769;DHT22;12064;50.890;5.424;2023-06-14T00:10:49;25.30;58.10
23769;DHT22;12064;50.890;5.424;2023-06-14T00:19:40;25.40;58.00
23769;DHT22;12064;50.890;5.424;2023-06-14T00:28:30;25.40;58.10
23769;DHT22;12064;50.890;5.424;2023-06-14T00:37:22;25.30;58.10
23769;DHT22;12064;50.890;5.424;2023-06-14T00:46:13;25.20;58.10
23769;DHT22;12064;50.890;5.424;2023-06-14T00:55:04;25.30;58.30
23769;DHT22;12064;50.890;5.424;2023-06-14T01:03:54;25.30;58.40
23769;DHT22;12064;50.890;5.424;2023-06-14T01:21:39;25.30;58.70
23769;DHT22;12064;50.890;5.424;2023-06-14T01:30:32;25.20;58.60
23769;DHT22;12064;50.890;5.424;2023-06-14T01:39:24;25.20;58.70
23769;DHT22;12064;50.890;5.424;2023-06-14T01:48:15;25.10;58.70
23769;DHT22;12064;50.890;5.424;2023-06-14T01:57:06;25.10;58.80
23769;DHT22;12064;50.890;5.424;2023-06-14T02:05:58;24.80;59.30
23769;DHT22;12064;50.890;5.424;2023-06-14T02:14:48;24.60;59.80
23769;DHT22;12064;50.890;5.424;2023-06-14T02:23:39;24.50;60.00
23769;DHT22;12064;50.890;5.424;2023-06-14T02:32:30;24.50;59.80
23769;DHT22;12064;50.890;5.424;2023-06-14T02:41:22;24.60;59.60
23769;DHT22;12064;50.890;5.424;2023-06-14T02:50:12;24.60;59.60
23769;DHT22;12064;50.890;5.424;2023-06-14T02:59:03;24.50;59.70
23769;DHT22;12064;50.890;5.424;2023-06-14T03:07:54;24.50;59.70
23769;DHT22;12064;50.890;5.424;2023-06-14T03:16:48;24.50;59.80
23769;DHT22;12064;50.890;5.424;2023-06-14T03:25:40;24.30;60.30
23769;DHT22;12064;50.890;5.424;2023-06-14T03:34:32;24.30;60.40
23769;DHT22;12064;50.890;5.424;2023-06-14T03:43:23;24.30;60.30
23769;DHT22;12064;50.890;5.424;2023-06-14T03:52:13;24.30;60.60
23769;DHT22;12064;50.890;5.424;2023-06-14T04:01:06;24.10;60.80
23769;DHT22;12064;50.890;5.424;2023-06-14T04:09:57;24.10;61.00
23769;DHT22;12064;50.890;5.424;2023-06-14T04:18:48;24.10;61.40
23769;DHT22;12064;50.890;5.424;2023-06-14T04:27:42;24.10;61.50
23769;DHT22;12064;50.890;5.424;2023-06-14T04:36:35;23.90;62.20
23769;DHT22;12064;50.890;5.424;2023-06-14T04:45:27;23.90;62.50
23769;DHT22;12064;50.890;5.424;2023-06-14T04:54:22;23.80;62.80
23769;DHT22;12064;50.890;5.424;2023-06-14T05:03:12;23.90;63.20
23769;DHT22;12064;50.890;5.424;2023-06-14T05:12:09;23.90;64.10
23769;DHT22;12064;50.890;5.424;2023-06-14T05:21:00;23.70;65.30
23769;DHT22;12064;50.890;5.424;2023-06-14T05:29:50;23.70;65.50
23769;DHT22;12064;50.890;5.424;2023-06-14T05:38:41;23.70;65.60
23769;DHT22;12064;50.890;5.424;2023-06-14T05:47:32;23.60;66.10
23769;DHT22;12064;50.890;5.424;2023-06-14T05:56:22;23.80;67.00
23769;DHT22;12064;50.890;5.424;2023-06-14T06:05:13;23.90;67.00
23769;DHT22;12064;50.890;5.424;2023-06-14T06:14:06;23.90;67.20
23769;DHT22;12064;50.890;5.424;2023-06-14T06:22:57;24.00;66.90
23769;DHT22;12064;50.890;5.424;2023-06-14T06:31:48;24.00;67.00
23769;DHT22;12064;50.890;5.424;2023-06-14T06:40:38;24.10;66.00
23769;DHT22;12064;50.890;5.424;2023-06-14T06:49:29;24.10;65.60
23769;DHT22;12064;50.890;5.424;2023-06-14T06:58:20;24.30;65.70
23769;DHT22;12064;50.890;5.424;2023-06-14T07:07:12;24.30;65.50
23769;DHT22;12064;50.890;5.424;2023-06-14T07:16:04;24.40;65.50
23769;DHT22;12064;50.890;5.424;2023-06-14T07:24:55;24.50;65.50
23769;DHT22;12064;50.890;5.424;2023-06-14T07:33:45;24.50;65.30
23769;DHT22;12064;50.890;5.424;2023-06-14T07:42:36;24.60;65.30
23769;DHT22;12064;50.890;5.424;2023-06-14T07:51:27;24.70;65.30
23769;DHT22;12064;50.890;5.424;2023-06-14T08:00:19;24.70;65.10
23769;DHT22;12064;50.890;5.424;2023-06-14T08:09:10;24.80;64.90
23769;DHT22;12064;50.890;5.424;2023-06-14T08:18:01;24.90;64.80
23769;DHT22;12064;50.890;5.424;2023-06-14T08:26:55;24.90;65.20
23769;DHT22;12064;50.890;5.424;2023-06-14T08:35:52;25.00;65.10
23769;DHT22;12064;50.890;5.424;2023-06-14T08:44:43;25.10;65.00
23769;DHT22;12064;50.890;5.424;2023-06-14T08:53:36;25.10;64.80
23769;DHT22;12064;50.890;5.424;2023-06-14T09:02:32;25.20;61.40
23769;DHT22;12064;50.890;5.424;2023-06-14T09:11:25;25.30;63.10
23769;DHT22;12064;50.890;5.424;2023-06-14T09:20:18;25.40;63.80
23769;DHT22;12064;50.890;5.424;2023-06-14T09:29:09;25.40;64.00
23769;DHT22;12064;50.890;5.424;2023-06-14T09:38:00;25.50;63.90
23769;DHT22;12064;50.890;5.424;2023-06-14T09:46:51;25.60;64.10
23769;DHT22;12064;50.890;5.424;2023-06-14T09:55:45;25.60;63.80
23769;DHT22;12064;50.890;5.424;2023-06-14T10:04:37;25.70;64.00
23769;DHT22;12064;50.890;5.424;2023-06-14T10:13:31;25.80;64.10
23769;DHT22;12064;50.890;5.424;2023-06-14T10:22:30;25.90;64.10
23769;DHT22;12064;50.890;5.424;2023-06-14T10:31:22;25.90;63.90
23769;DHT22;12064;50.890;5.424;2023-06-14T10:40:30;25.90;64.00
23769;DHT22;12064;50.890;5.424;2023-06-14T10:49:40;26.00;63.80
23769;DHT22;12064;50.890;5.424;2023-06-14T10:58:32;26.10;62.20
23769;DHT22;12064;50.890;5.424;2023-06-14T11:07:39;26.10;63.00
23769;DHT22;12064;50.890;5.424;2023-06-14T11:16:30;26.20;63.20
23769;DHT22;12064;50.890;5.424;2023-06-14T11:25:23;26.30;63.40
23769;DHT22;12064;50.890;5.424;2023-06-14T11:34:15;26.30;63.70
23769;DHT22;12064;50.890;5.424;2023-06-14T11:43:06;26.40;63.80
23769;DHT22;12064;50.890;5.424;2023-06-14T11:51:57;26.40;63.80
23769;DHT22;12064;50.890;5.424;2023-06-14T12:00:49;26.50;63.70
23769;DHT22;12064;50.890;5.424;2023-06-14T12:09:41;26.50;63.80
23769;DHT22;12064;50.890;5.424;2023-06-14T12:18:35;26.60;63.80
23769;DHT22;12064;50.890;5.424;2023-06-14T12:27:26;26.60;63.80
23769;DHT22;12064;50.890;5.424;2023-06-14T12:36:19;26.60;63.70
23769;DHT22;12064;50.890;5.424;2023-06-14T12:45:10;26.70;63.80
23769;DHT22;12064;50.890;5.424;2023-06-14T12:54:01;26.70;63.70
23769;DHT22;12064;50.890;5.424;2023-06-14T13:02:52;26.70;63.60
23769;DHT22;12064;50.890;5.424;2023-06-14T13:11:42;26.80;63.70
23769;DHT22;12064;50.890;5.424;2023-06-14T13:20:36;26.80;63.90
23769;DHT22;12064;50.890;5.424;2023-06-14T13:29:26;26.80;63.70
23769;DHT22;12064;50.890;5.424;2023-06-14T13:38:18;26.90;63.90
23769;DHT22;12064;50.890;5.424;2023-06-14T13:47:08;26.90;63.80
23769;DHT22;12064;50.890;5.424;2023-06-14T13:55:59;26.90;63.80
23769;DHT22;12064;50.890;5.424;2023-06-14T14:04:50;26.90;63.80
23769;DHT22;12064;50.890;5.424;2023-06-14T14:13:43;27.00;64.00
23769;DHT22;12064;50.890;5.424;2023-06-14T14:22:35;27.00;64.00
23769;DHT22;12064;50.890;5.424;2023-06-14T14:31:26;27.00;63.90
23769;DHT22;12064;50.890;5.424;2023-06-14T14:40:16;27.10;63.90
23769;DHT22;12064;50.890;5.424;2023-06-14T14:49:07;27.10;64.00
23769;DHT22;12064;50.890;5.424;2023-06-14T14:57:58;27.10;64.20
23769;DHT22;12064;50.890;5.424;2023-06-14T15:06:48;27.10;64.10
23769;DHT22;12064;50.890;5.424;2023-06-14T15:15:39;27.20;64.30
23769;DHT22;12064;50.890;5.424;2023-06-14T15:24:30;27.10;64.20
23769;DHT22;12064;50.890;5.424;2023-06-14T15:33:23;27.20;64.30
23769;DHT22;12064;50.890;5.424;2023-06-14T15:42:13;27.10;64.30
23769;DHT22;12064;50.890;5.424;2023-06-14T15:51:06;27.20;64.80
23769;DHT22;12064;50.890;5.424;2023-06-14T15:59:57;27.20;64.70
23769;DHT22;12064;50.890;5.424;2023-06-14T16:08:47;27.20;64.10
23769;DHT22;12064;50.890;5.424;2023-06-14T16:17:38;27.20;64.80
23769;DHT22;12064;50.890;5.424;2023-06-14T16:26:29;27.20;65.50
23769;DHT22;12064;50.890;5.424;2023-06-14T16:35:20;27.20;66.40
23769;DHT22;12064;50.890;5.424;2023-06-14T16:44:10;27.20;63.70
23769;DHT22;12064;50.890;5.424;2023-06-14T16:53:02;27.20;65.20
23769;DHT22;12064;50.890;5.424;2023-06-14T17:01:58;27.20;66.00
23769;DHT22;12064;50.890;5.424;2023-06-14T17:10:51;27.10;61.10
23769;DHT22;12064;50.890;5.424;2023-06-14T17:19:42;27.10;65.70
23769;DHT22;12064;50.890;5.424;2023-06-14T17:28:34;27.10;66.40
23769;DHT22;12064;50.890;5.424;2023-06-14T17:37:26;27.10;65.80
23769;DHT22;12064;50.890;5.424;2023-06-14T17:46:17;27.10;65.30
23769;DHT22;12064;50.890;5.424;2023-06-14T17:55:08;27.10;64.80
23769;DHT22;12064;50.890;5.424;2023-06-14T18:04:00;27.10;66.50
23769;DHT22;12064;50.890;5.424;2023-06-14T18:12:50;27.10;67.10
23769;DHT22;12064;50.890;5.424;2023-06-14T18:21:41;27.10;67.50
23769;DHT22;12064;50.890;5.424;2023-06-14T18:30:31;27.00;67.90
23769;DHT22;12064;50.890;5.424;2023-06-14T18:39:22;27.10;68.10
23769;DHT22;12064;50.890;5.424;2023-06-14T18:48:13;27.00;67.00
23769;DHT22;12064;50.890;5.424;2023-06-14T18:57:05;27.00;68.30
23769;DHT22;12064;50.890;5.424;2023-06-14T19:05:56;27.00;68.50
23769;DHT22;12064;50.890;5.424;2023-06-14T19:14:49;26.50;58.50
23769;DHT22;12064;50.890;5.424;2023-06-14T19:23:40;26.40;58.50
23769;DHT22;12064;50.890;5.424;2023-06-14T19:32:32;26.20;58.00
23769;DHT22;12064;50.890;5.424;2023-06-14T19:41:24;26.10;58.00
23769;DHT22;12064;50.890;5.424;2023-06-14T19:50:18;26.00;57.80
23769;DHT22;12064;50.890;5.424;2023-06-14T19:59:08;25.90;58.00
23769;DHT22;12064;50.890;5.424;2023-06-14T20:07:59;25.80;58.20
23769;DHT22;12064;50.890;5.424;2023-06-14T20:16:50;25.60;58.60
23769;DHT22;12064;50.890;5.424;2023-06-14T20:25:42;25.50;58.90
23769;DHT22;12064;50.890;5.424;2023-06-14T20:34:33;25.40;58.90
23769;DHT22;12064;50.890;5.424;2023-06-14T20:43:24;25.40;59.00
23769;DHT22;12064;50.890;5.424;2023-06-14T20:52:14;25.30;59.10
23769;DHT22;12064;50.890;5.424;2023-06-14T21:01:05;25.20;59.20
23769;DHT22;12064;50.890;5.424;2023-06-14T21:09:56;25.10;59.50
23769;DHT22;12064;50.890;5.424;2023-06-14T21:18:47;25.20;59.70
23769;DHT22;12064;50.890;5.424;2023-06-14T21:27:37;25.10;59.90
23769;DHT22;12064;50.890;5.424;2023-06-14T21:36:28;25.10;59.60
23769;DHT22;12064;50.890;5.424;2023-06-14T21:45:22;25.20;59.30
23769;DHT22;12064;50.890;5.424;2023-06-14T21:54:12;25.30;59.10
23769;DHT22;12064;50.890;5.424;2023-06-14T22:03:03;25.30;59.40
23769;DHT22;12064;50.890;5.424;2023-06-14T22:11:54;25.50;59.60
23769;DHT22;12064;50.890;5.424;2023-06-14T22:20:46;25.40;59.90
23769;DHT22;12064;50.890;5.424;2023-06-14T22:29:37;25.50;60.40
23769;DHT22;12064;50.890;5.424;2023-06-14T22:38:29;25.50;60.70
23769;DHT22;12064;50.890;5.424;2023-06-14T22:47:21;25.40;61.00
23769;DHT22;12064;50.890;5.424;2023-06-14T22:56:13;25.40;61.20
23769;DHT22;12064;50.890;5.424;2023-06-14T23:05:08;25.40;61.40
23769;DHT22;12064;50.890;5.424;2023-06-14T23:13:59;25.40;61.60
23769;DHT22;12064;50.890;5.424;2023-06-14T23:22:51;25.30;61.80
23769;DHT22;12064;50.890;5.424;2023-06-14T23:31:43;25.30;61.90
23769;DHT22;12064;50.890;5.424;2023-06-14T23:40:33;25.40;62.20
23769;DHT22;12064;50.890;5.424;2023-06-14T23:49:25;25.30;62.20
23769;DHT22;12064;50.890;5.424;2023-06-14T23:58:16;25.30;62.40
